• Join FlightAware (Why Join?)
  • Login
  • US Flag 
02:56PM EDT


 

Airport Tracker/Info


-or-


 

Live Flight TrackerFlight Track Log ✈ DAL1117 ✈ 29-Apr-2013 ✈ KDTW - KLAS

Flight Track Log - Related Links

Times and Time Zones

All times are in EDT time to prevent confusion due to time zone crossing. See the DAL1117 flight status page for this flight to view local times or setup timezone preferences in your user account.

Time Position Orientation Groundspeed Altitude Reporting Facility
EDT Latitude Longitude Course Direction KTS MPH feet Rate Location/Type
09:44PM 42.2017 -83.3583 275° West 156 180 1,500  Level Cleveland Center
09:44PM 42.1931 -83.3689 222° Southwest 160 184 2,200 1,740 Climbing Cleveland Center
09:45PM 42.1539 -83.4317 230° Southwest 256 295 3,800 2,520 Climbing Cleveland Center
09:46PM 42.3110 -83.7881 285° West  Level FlightAware Approximate
09:46PM 42.1267 -83.5172 247° West 280 322 7,400  Level Cleveland Center
09:47PM 42.3515 -83.9327 292° West  Level FlightAware Approximate
09:47PM 42.1836 -83.6517 300° West 302 348 11,200  Level Cleveland Center
09:48PM 42.3946 -84.0763 292° West  Level FlightAware Approximate
09:48PM 42.2328 -83.7606 301° West 325 374 13,900  Level Cleveland Center
09:49PM 42.4195 -84.2254 275° West  Level FlightAware Approximate
09:49PM 42.2817 -83.8753 300° West 346 398 16,800  Level Cleveland Center
09:50PM 42.3347 -83.9906 302° West 352 405 19,100 2,160 Climbing Cleveland Center
09:52PM 42.4281 -84.2261 298° West 383 441 23,400 1,860 Climbing Chicago Center
09:54PM 42.4314 -84.3683 272° West 381 438 24,900 1,560 Climbing Chicago Center
09:55PM 42.4350 -84.5156 272° West 390 449 26,700 1,500 Climbing Chicago Center
09:56PM 42.4381 -84.6644 272° West 397 457 28,000 1,260 Climbing Chicago Center
09:58PM 42.4336 -84.9669 269° West  Level FlightAware Approximate
09:59PM 42.4500 -85.1544 269° West 407 468 32,000  Level Chicago Center
10:00PM 42.4542 -85.3064 272° West 405 466 33,000 1,020 Climbing Chicago Center
10:01PM 42.4561 -85.4594 271° West 406 467 34,100 840 Climbing Chicago Center
10:02PM 42.4592 -85.6133 272° West 408 470 34,800 780 Climbing Chicago Center
10:03PM 42.4614 -85.7683 271° West 410 472 35,700 900 Climbing Chicago Center
10:04PM 42.4628 -85.9253 271° West 415 478 36,700 780 Climbing Chicago Center
10:05PM 42.4647 -86.0819 271° West 414 476 37,300 540 Climbing Chicago Center
10:06PM 42.4483 -86.2372 262° West 415 478 37,800 300 Climbing Chicago Center
10:07PM 42.4278 -86.3936 260° West 421 484 38,000 60 Climbing Chicago Center
10:08PM 42.4083 -86.5500 260° West 421 484 38,000  Level Chicago Center
10:09PM 42.3886 -86.7267 261° West 421 484 38,000  Level Chicago Center
10:10PM 42.3686 -86.8803 260° West 420 483 38,000  Level Chicago Center
10:11PM 42.3483 -87.0364 260° West 423 487 38,000  Level Chicago Center
10:12PM 42.3269 -87.1869 259° West 418 481 38,000  Level Chicago Center
10:13PM 42.3056 -87.3411 259° West 422 486 38,000  Level Chicago Center
10:14PM 42.2811 -87.5228 260° West 419 482 38,000  Level Chicago Center
10:15PM 42.2597 -87.6769 259° West 420 483 38,000  Level Chicago Center
10:16PM 42.2383 -87.8308 259° West 420 483 38,000  Level Chicago Center
10:17PM 42.2161 -87.9825 259° West 416 479 38,000  Level Chicago Center
10:18PM 42.1892 -88.1350 257° West 421 484 38,000  Level Chicago Center
10:19PM 42.1622 -88.2844 256° West 417 480 38,000  Level Chicago Center
10:20PM 42.1353 -88.4336 256° West 416 479 38,000  Level Chicago Center
10:21PM 42.1039 -88.6114 257° West 413 475 38,000  Level Chicago Center
10:22PM 42.0767 -88.7617 256° West 417 480 38,000  Level Chicago Center
10:23PM 42.0492 -88.9128 256° West 419 482 38,000  Level Chicago Center
10:24PM 42.0217 -89.0608 256° West 413 475 38,000  Level Chicago Center
10:25PM 41.9939 -89.2122 256° West 418 481 38,000  Level Chicago Center
10:26PM 41.9644 -89.3611 255° West 418 481 38,000  Level Chicago Center
10:27PM 41.9383 -89.5081 257° West 412 474 38,000  Level Chicago Center
10:28PM 41.9094 -89.6556 255° West 410 472 38,000  Level Chicago Center
10:29PM 41.8753 -89.8336 256° West 415 478 38,000  Level Chicago Center
10:30PM 41.8486 -89.9794 256° West 416 479 38,000  Level Chicago Center
10:31PM 41.8206 -90.1261 256° West 412 474 38,000  Level Chicago Center
10:32PM 41.7900 -90.2844 256° West 424 488 38,000  Level Chicago Center
10:33PM 41.7586 -90.4367 255° West 426 490 38,000  Level Chicago Center
10:34PM 41.7306 -90.5794 255° West 404 465 38,000  Level Chicago Center
10:35PM 41.7036 -90.7156 255° West 403 464 38,000  Level Chicago Center
10:36PM 41.6736 -90.8644 255° West 412 474 38,000  Level Chicago Center
10:37PM 41.6364 -91.0456 255° West 422 486 38,000  Level Chicago Center
10:38PM 41.6058 -91.1944 255° West 419 482 38,000  Level Chicago Center
10:39PM 41.5747 -91.3458 255° West 424 488 38,000  Level Chicago Center
10:40PM 41.5431 -91.4969 254° West 425 489 38,000  Level Chicago Center
10:41PM 41.5106 -91.6497 254° West 431 496 38,000  Level Chicago Center
10:42PM 41.4694 -91.8006 250° West 434 499 38,000  Level Chicago Center
10:43PM 41.4297 -91.9536 251° West 438 504 38,000  Level Chicago Center
10:45PM 41.3886 -92.1039 250° West 437 503 38,000  Level Chicago Center
10:46PM 41.3406 -92.2864 251° West 438 504 38,000  Level Chicago Center
10:47PM 41.3058 -92.4164 250° West 432 497 38,000  Level Chicago Center
10:48PM 41.2647 -92.5658 250° West 435 501 38,000  Level Chicago Center
10:48PM 41.2325 -92.6856 250° West 434 499 38,000  Level Minneapolis Center
10:49PM 41.1922 -92.8331 250° West 431 496 38,000  Level Minneapolis Center
10:50PM 41.1511 -92.9806 250° West 432 497 38,000  Level Minneapolis Center
10:51PM 41.1094 -93.1275 249° West 431 496 38,000  Level Minneapolis Center
10:52PM 41.0603 -93.3042 250° West 431 496 38,000  Level Minneapolis Center
10:53PM 41.0192 -93.4508 250° West 431 496 38,000  Level Minneapolis Center
10:54PM 40.9817 -93.5914 251° West 422 486 38,000  Level Minneapolis Center
10:55PM 40.9386 -93.7381 249° West 428 493 38,000  Level Minneapolis Center
10:57PM 40.8947 -93.8856 249° West 434 499 38,000  Level Minneapolis Center
10:58PM 40.8469 -94.0550 250° West 423 487 38,000  Level Minneapolis Center
10:59PM 40.8053 -94.1947 249° West 417 480 38,000  Level Minneapolis Center
11:00PM 40.7572 -94.3639 249° West 415 478 38,000  Level Minneapolis Center
11:01PM 40.7142 -94.5050 248° West 418 481 38,000  Level Minneapolis Center
11:02PM 40.6769 -94.6325 249° West 415 478 38,000  Level Minneapolis Center
11:03PM 40.6264 -94.8019 249° West 414 476 38,000  Level Minneapolis Center
11:04PM 40.5853 -94.9433 249° West 413 475 38,000  Level Minneapolis Center
11:05PM 40.5428 -95.0839 248° West 412 474 38,000  Level Minneapolis Center
11:06PM 40.5006 -95.2236 248° West 411 473 38,000  Level Minneapolis Center
11:07PM 40.4508 -95.3925 249° West 411 473 38,000  Level Minneapolis Center
11:08PM 40.4064 -95.5361 248° West 417 480 38,000  Level Minneapolis Center
11:09PM 40.3633 -95.6772 248° West 419 482 38,000  Level Minneapolis Center
11:10PM 40.3197 -95.8169 248° West 416 479 38,000  Level Minneapolis Center
11:11PM 40.2764 -95.9597 248° West 418 481 38,000  Level Minneapolis Center
11:12PM 40.2331 -96.0997 248° West 416 479 38,000  Level Minneapolis Center
11:13PM 40.1908 -96.2428 249° West 418 481 38,000  Level Minneapolis Center
11:14PM 40.1603 -96.3881 255° West 417 480 38,000  Level Minneapolis Center
11:15PM 40.1289 -96.5361 255° West 419 482 38,000  Level Minneapolis Center
11:16PM 40.0972 -96.6811 254° West 417 480 38,000  Level Minneapolis Center
11:17PM 40.0519 -96.8856 254° West 418 481 38,000  Level Minneapolis Center
11:18PM 40.0197 -97.0311 254° West 416 479 38,000  Level Minneapolis Center
11:19PM 39.9883 -97.1764 254° West 417 480 38,000  Level Minneapolis Center
11:20PM 39.9553 -97.3217 254° West 417 480 38,000  Level Minneapolis Center
11:21PM 39.9253 -97.4489 253° West 416 479 38,000  Level Minneapolis Center
11:23PM 39.8878 -97.6211 254° West 412 474 38,000  Level Minneapolis Center
11:24PM 39.8536 -97.7647 253° West 414 476 38,000  Level Minneapolis Center
11:25PM 39.8214 -97.9075 254° West 412 474 38,000  Level Minneapolis Center
11:26PM 39.7881 -98.0517 253° West 413 475 38,000  Level Minneapolis Center
11:27PM 39.7536 -98.1972 253° West 419 482 38,000  Level Minneapolis Center
11:28PM 39.7189 -98.3436 253° West 422 486 38,000  Level Minneapolis Center
11:29PM 39.6853 -98.4883 253° West 420 483 38,000  Level Minneapolis Center
11:30PM 39.6511 -98.6311 253° West 416 479 38,000  Level Minneapolis Center
11:31PM 39.6175 -98.7761 253° West 417 480 38,000  Level Minneapolis Center
11:32PM 39.5753 -98.9486 252° West 418 481 38,000  Level Denver Center
11:33PM 39.5408 -99.0925 253° West 417 480 38,000  Level Denver Center
11:34PM 39.5058 -99.2347 252° West 415 478 38,000  Level Denver Center
11:35PM 39.4714 -99.3775 253° West 416 479 38,000  Level Denver Center
11:36PM 39.4350 -99.5217 252° West 414 476 38,000  Level Denver Center
11:37PM 39.3956 -99.6803 252° West 416 479 38,000  Level Denver Center
11:38PM 39.3611 -99.8194 252° West 420 483 38,000  Level Denver Center
11:39PM 39.3203 -99.9794 252° West 421 484 38,000  Level Denver Center
11:40PM 39.2853 -100.1189 252° West 425 489 38,000  Level Denver Center
11:41PM 39.2572 -100.2331 252° West 420 483 38,000  Level Denver Center
11:42PM 39.2186 -100.4150 255° West 415 478 38,000  Level Denver Center
11:43PM 39.1900 -100.5531 255° West 415 478 38,000  Level Denver Center
11:44PM 39.1608 -100.6906 255° West 415 478 38,000  Level Denver Center
11:45PM 39.1211 -100.8742 254° West 417 480 38,000  Level Denver Center
11:46PM 39.0908 -101.0125 254° West 419 482 38,000  Level Denver Center
11:47PM 39.0564 -101.1753 255° West 422 486 38,000  Level Denver Center
11:48PM 39.0228 -101.3261 254° West 420 483 38,000  Level Denver Center
11:49PM 38.9922 -101.4639 254° West 421 484 38,000  Level Denver Center
11:51PM 38.9625 -101.6028 255° West 423 487 38,000  Level Denver Center
11:52PM 38.9211 -101.7875 254° West 423 487 38,000  Level Denver Center
11:53PM 38.8900 -101.9247 254° West 421 484 38,000  Level Denver Center
11:54PM 38.8536 -102.0853 254° West 421 484 38,000  Level Denver Center
11:55PM 38.8272 -102.2008 254° West 423 487 38,000  Level Denver Center
11:56PM 38.7844 -102.3842 253° West 424 488 38,000  Level Denver Center
11:57PM 38.7531 -102.5228 254° West 425 489 38,000  Level Denver Center
11:58PM 38.7214 -102.6589 253° West 421 484 38,000  Level Denver Center
11:59PM 38.6867 -102.8072 253° West 422 486 38,000  Level Denver Center
12:00AM 38.6531 -102.9511 253° West 420 483 38,000  Level Denver Center
12:01AM 38.6189 -103.0969 253° West 423 487 38,000  Level Denver Center
12:02AM 38.5839 -103.2425 253° West 425 489 38,000  Level Denver Center
12:03AM 38.5486 -103.3928 253° West 425 489 38,000  Level Denver Center
12:04AM 38.5131 -103.5383 253° West 426 490 38,000 -120 Level Denver Center
12:05AM 38.4747 -103.6983 253° West 425 489 37,800 -720 Descending Denver Center
12:06AM 38.4414 -103.8344 253° West 422 486 36,600 -900 Descending Denver Center
12:07AM 38.4025 -103.9903 252° West 418 481 36,000 -300 Descending Denver Center
12:08AM 38.3675 -104.1344 253° West 423 487 36,000  Level Denver Center
12:09AM 38.3319 -104.2772 252° West 420 483 36,000  Level Denver Center
12:10AM 38.2983 -104.4192 253° West 420 483 36,000  Level Denver Center
12:11AM 38.2825 -104.5578 262° West 416 479 36,000  Level Denver Center
12:12AM 38.2683 -104.7211 264° West 417 480 36,000  Level Denver Center
12:13AM 38.2553 -104.8594 263° West 414 476 36,000  Level Denver Center
12:14AM 38.2411 -105.0094 263° West 415 478 36,000  Level Denver Center
12:15AM 38.2272 -105.1586 263° West 418 481 36,000  Level Denver Center
12:16AM 38.2133 -105.3022 263° West 416 479 36,000  Level Denver Center
12:17AM 38.1981 -105.4647 263° West 415 478 36,000  Level Denver Center
12:18AM 38.1850 -105.6003 263° West 415 478 36,000  Level Denver Center
12:19AM 38.1706 -105.7422 263° West 412 474 36,000  Level Denver Center
12:20AM 38.1547 -105.9006 263° West 413 475 36,000  Level Denver Center
12:21AM 38.1406 -106.0425 263° West 418 481 36,000 -360 Level Denver Center
12:22AM 38.1258 -106.1778 262° West 412 474 35,300 -840 Descending Denver Center
12:23AM 38.1114 -106.3258 263° West 420 483 34,300 -660 Descending Denver Center
12:24AM 38.0947 -106.4758 262° West 424 488 34,000 -180 Descending Denver Center
12:25AM 38.0764 -106.6519 263° West 424 488 34,000  Level Denver Center
12:26AM 38.0606 -106.7933 262° West 422 486 34,000  Level Denver Center
12:27AM 38.0453 -106.9342 262° West 420 483 34,000  Level Denver Center
12:28AM 38.0281 -107.0967 262° West 416 479 34,000  Level Denver Center
12:29AM 38.0103 -107.2461 261° West 422 486 34,000  Level Denver Center
12:30AM 37.9939 -107.3869 262° West 423 487 34,000  Level Denver Center
12:31AM 37.9756 -107.5542 262° West 429 494 34,000  Level Denver Center
12:32AM 37.9594 -107.6981 262° West 432 497 34,000  Level Denver Center
12:33AM 37.9428 -107.8397 262° West 428 493 34,100  Climbing Denver Center
12:34AM 37.9231 -108.0000 261° West 418 481 34,000 -60 Descending Denver Center
12:35AM 37.9064 -108.1367 261° West 411 473 34,000  Level Denver Center
12:36AM 37.8900 -108.2731 261° West 411 473 34,000  Level Denver Center
12:37AM 37.8706 -108.4356 261° West 416 479 34,000  Level Denver Center
12:39AM 37.8533 -108.5728 261° West 416 479 34,000  Level Denver Center
12:40AM 37.8331 -108.7386 261° West 423 487 34,000  Level Denver Center
12:41AM 37.8150 -108.8792 261° West 423 487 34,000  Level Denver Center
12:42AM 37.7878 -109.0136 256° West 421 484 34,000  Level Denver Center
12:43AM 37.7483 -109.1728 253° West 427 491 34,000  Level Denver Center
12:44AM 37.7144 -109.3094 253° West 427 491 34,000  Level Denver Center
12:45AM 37.6811 -109.4444 253° West 424 488 34,000  Level Denver Center
12:46AM 37.6411 -109.6017 252° West 423 487 34,000  Level Denver Center
12:47AM 37.6069 -109.7361 252° West 422 486 34,000 -360 Level Denver Center
12:48AM 37.5731 -109.8725 253° West 425 489 33,300 -900 Descending Denver Center
12:49AM 37.5331 -110.0317 252° West 427 491 32,200 -660 Descending Denver Center
12:50AM 37.4956 -110.1711 251° West 436 502 32,000 -120 Descending Denver Center
12:51AM 37.4625 -110.3008 252° West 432 497 32,000  Level Denver Center
12:52AM 37.4172 -110.4722 252° West 430 495 32,000  Level Denver Center
12:53AM 37.3794 -110.6167 252° West 435 501 32,000  Level Denver Center
12:54AM 37.3417 -110.7603 252° West 434 499 32,000  Level Denver Center
12:55AM 37.3039 -110.9025 252° West 429 494 32,000  Level Denver Center
12:56AM 37.2653 -111.0456 251° West 432 497 32,000  Level Denver Center
12:57AM 37.2281 -111.1903 252° West 435 501 32,000  Level Denver Center
12:58AM 37.1881 -111.3344 251° West 437 503 32,000  Level Denver Center
12:59AM 37.1500 -111.4794 252° West 436 502 32,000  Level Denver Center
01:00AM 37.1106 -111.6222 251° West 434 499 32,000  Level Denver Center
01:01AM 37.0708 -111.7656 251° West 435 501 32,000  Level Denver Center
01:02AM 37.0319 -111.9094 251° West 436 502 32,000 -120 Level Denver Center
01:03AM 36.9911 -112.0547 251° West 439 505 31,800 -540 Descending Denver Center
01:04AM 36.9700 -112.1692 257° West 429 494 31,100 -960 Descending Los Angeles Center
01:05AM 36.9403 -112.3156 256° West 432 497 30,100 -1,020 Descending Los Angeles Center
01:06AM 36.9114 -112.4647 256° West 438 504 29,100 -1,020 Descending Los Angeles Center
01:07AM 36.8806 -112.6108 255° West 436 502 28,100 -960 Descending Los Angeles Center
01:08AM 36.8528 -112.7533 256° West 425 489 27,200 -1,020 Descending Los Angeles Center
01:09AM 36.8233 -112.8994 256° West 430 495 26,100 -1,020 Descending Los Angeles Center
01:10AM 36.7950 -113.0358 255° West 410 472 25,200 -960 Descending Los Angeles Center
01:11AM 36.7692 -113.1617 256° West 383 441 24,200 -600 Descending Los Angeles Center
01:12AM 36.7369 -113.3131 255° West 377 434 24,000 -120 Descending Los Angeles Center
01:13AM 36.7111 -113.4383 256° West 375 432 24,000  Level Los Angeles Center
01:14AM 36.6858 -113.5642 256° West 374 430 24,000  Level Los Angeles Center
01:15AM 36.6594 -113.6894 255° West 374 430 24,000  Level Los Angeles Center
01:16AM 36.6331 -113.8161 255° West 376 433 24,000 -360 Level Los Angeles Center
01:17AM 36.6058 -113.9456 255° West 385 443 23,300 -1,620 Descending Los Angeles Center
01:18AM 36.5764 -114.0761 254° West 391 450 20,800 -2,760 Descending Los Angeles Center
01:19AM 36.5272 -114.1894 242° Southwest 375 432 17,700 -3,060 Descending Los Angeles Center
01:20AM 36.4611 -114.3447 242° Southwest 364 419 14,000 -2,400 Descending Los Angeles Center
01:21AM 36.4111 -114.4389 237° Southwest 355 409 12,400 -1,560 Descending Los Angeles Center
01:22AM 36.3667 -114.5289 238° Southwest 316 364 10,900 -1,620 Descending Los Angeles Center
01:23AM 36.3117 -114.6364 238° Southwest 287 330 8,800 -1,320 Descending Los Angeles Center
01:24AM 36.2686 -114.7150 236° Southwest 275 316 8,000 -540 Descending Los Angeles Center
01:25AM 36.2269 -114.7903 236° Southwest 268 308 7,800 -900 Descending Los Angeles Center
01:26AM 36.1850 -114.8658 235° Southwest 263 303 6,200 -900 Descending Los Angeles Center
01:27AM 36.1475 -114.9314 235° Southwest 216 249 6,000 -180 Descending Los Angeles Center
01:28AM 36.1433 -114.9378 231° Southwest 235 270 6,000 -240 Level Los Angeles Center
01:28AM 36.1342 -114.9892 258° West 170 196 5,800 -360 Descending Los Angeles Center
01:29AM 36.1336 -115.0017 267° West 170 196 5,500 -1,380 Descending Los Angeles Center
01:29AM 36.1375 -115.0442 276° West 156 180 4,400 -1,800 Descending Los Angeles Center
01:30AM 36.1397 -115.0650 278° West 158 182 3,700 -1,080 Descending Los Angeles Center